sensor_id;sensor_type;location;lat;lon;timestamp;P1;durP1;ratioP1;P2;durP2;ratioP2
21337;SDS011;10827;50.878;4.382;2022-08-18T00:00:42;123.68;;;60.65;;
21337;SDS011;10827;50.878;4.382;2022-08-18T00:03:09;122.13;;;60.85;;
21337;SDS011;10827;50.878;4.382;2022-08-18T00:05:35;123.38;;;61.80;;
21337;SDS011;10827;50.878;4.382;2022-08-18T00:08:02;123.80;;;60.85;;
21337;SDS011;10827;50.878;4.382;2022-08-18T00:10:29;127.43;;;63.63;;
21337;SDS011;10827;50.878;4.382;2022-08-18T00:12:55;129.30;;;63.50;;
21337;SDS011;10827;50.878;4.382;2022-08-18T00:15:21;127.65;;;63.90;;
21337;SDS011;10827;50.878;4.382;2022-08-18T00:17:46;130.55;;;63.50;;
21337;SDS011;10827;50.878;4.382;2022-08-18T00:20:16;126.93;;;62.10;;
21337;SDS011;10827;50.878;4.382;2022-08-18T00:22:44;122.38;;;62.42;;
21337;SDS011;10827;50.878;4.382;2022-08-18T00:25:12;129.90;;;62.60;;
21337;SDS011;10827;50.878;4.382;2022-08-18T00:27:39;113.00;;;59.10;;
21337;SDS011;10827;50.878;4.382;2022-08-18T00:30:06;116.93;;;60.00;;
21337;SDS011;10827;50.878;4.382;2022-08-18T00:32:39;110.15;;;58.08;;
21337;SDS011;10827;50.878;4.382;2022-08-18T00:35:11;108.85;;;56.92;;
21337;SDS011;10827;50.878;4.382;2022-08-18T00:37:45;116.43;;;59.10;;
21337;SDS011;10827;50.878;4.382;2022-08-18T00:40:13;111.43;;;57.95;;
21337;SDS011;10827;50.878;4.382;2022-08-18T00:42:47;108.90;;;56.78;;
21337;SDS011;10827;50.878;4.382;2022-08-18T00:45:19;110.55;;;56.45;;
21337;SDS011;10827;50.878;4.382;2022-08-18T00:47:49;112.15;;;58.95;;
21337;SDS011;10827;50.878;4.382;2022-08-18T00:50:37;119.68;;;58.40;;
21337;SDS011;10827;50.878;4.382;2022-08-18T00:53:02;119.85;;;58.33;;
21337;SDS011;10827;50.878;4.382;2022-08-18T00:55:33;126.85;;;59.08;;
21337;SDS011;10827;50.878;4.382;2022-08-18T00:58:04;120.20;;;58.83;;
21337;SDS011;10827;50.878;4.382;2022-08-18T01:00:34;121.32;;;58.30;;
21337;SDS011;10827;50.878;4.382;2022-08-18T01:03:03;129.50;;;61.65;;
21337;SDS011;10827;50.878;4.382;2022-08-18T01:05:34;126.95;;;60.63;;
21337;SDS011;10827;50.878;4.382;2022-08-18T01:08:05;124.28;;;59.85;;
21337;SDS011;10827;50.878;4.382;2022-08-18T01:10:36;124.45;;;60.67;;
21337;SDS011;10827;50.878;4.382;2022-08-18T01:13:03;132.40;;;62.50;;
21337;SDS011;10827;50.878;4.382;2022-08-18T01:15:29;128.50;;;62.20;;
21337;SDS011;10827;50.878;4.382;2022-08-18T01:17:59;144.38;;;64.82;;
21337;SDS011;10827;50.878;4.382;2022-08-18T01:24:02;121.38;;;59.75;;
21337;SDS011;10827;50.878;4.382;2022-08-18T01:26:29;120.97;;;61.00;;
21337;SDS011;10827;50.878;4.382;2022-08-18T01:29:03;119.30;;;59.28;;
21337;SDS011;10827;50.878;4.382;2022-08-18T01:31:38;121.57;;;60.22;;
21337;SDS011;10827;50.878;4.382;2022-08-18T01:34:08;122.13;;;59.38;;
21337;SDS011;10827;50.878;4.382;2022-08-18T01:36:36;125.70;;;61.78;;
21337;SDS011;10827;50.878;4.382;2022-08-18T01:39:09;127.43;;;61.45;;
21337;SDS011;10827;50.878;4.382;2022-08-18T01:41:37;134.70;;;63.83;;
21337;SDS011;10827;50.878;4.382;2022-08-18T01:44:03;124.22;;;58.67;;
21337;SDS011;10827;50.878;4.382;2022-08-18T01:46:31;125.63;;;61.13;;
21337;SDS011;10827;50.878;4.382;2022-08-18T01:48:58;130.27;;;60.80;;
21337;SDS011;10827;50.878;4.382;2022-08-18T01:51:26;131.75;;;59.38;;
21337;SDS011;10827;50.878;4.382;2022-08-18T01:53:54;127.35;;;60.70;;
21337;SDS011;10827;50.878;4.382;2022-08-18T01:56:20;126.18;;;59.00;;
21337;SDS011;10827;50.878;4.382;2022-08-18T01:58:46;119.85;;;57.15;;
21337;SDS011;10827;50.878;4.382;2022-08-18T02:01:13;123.38;;;58.83;;
21337;SDS011;10827;50.878;4.382;2022-08-18T02:03:43;114.82;;;56.33;;
21337;SDS011;10827;50.878;4.382;2022-08-18T02:06:13;123.20;;;58.20;;
21337;SDS011;10827;50.878;4.382;2022-08-18T02:08:42;118.03;;;57.95;;
21337;SDS011;10827;50.878;4.382;2022-08-18T02:11:09;115.72;;;57.60;;
21337;SDS011;10827;50.878;4.382;2022-08-18T02:13:35;121.45;;;57.28;;
21337;SDS011;10827;50.878;4.382;2022-08-18T02:16:01;124.78;;;57.83;;
21337;SDS011;10827;50.878;4.382;2022-08-18T02:18:29;120.22;;;57.38;;
21337;SDS011;10827;50.878;4.382;2022-08-18T02:20:57;120.95;;;59.03;;
21337;SDS011;10827;50.878;4.382;2022-08-18T02:23:30;116.38;;;55.53;;
21337;SDS011;10827;50.878;4.382;2022-08-18T02:25:56;113.18;;;56.58;;
21337;SDS011;10827;50.878;4.382;2022-08-18T02:28:21;118.97;;;55.60;;
21337;SDS011;10827;50.878;4.382;2022-08-18T02:30:47;120.22;;;57.83;;
21337;SDS011;10827;50.878;4.382;2022-08-18T02:33:13;116.38;;;58.83;;
21337;SDS011;10827;50.878;4.382;2022-08-18T02:35:39;118.57;;;58.42;;
21337;SDS011;10827;50.878;4.382;2022-08-18T02:38:07;120.63;;;57.67;;
21337;SDS011;10827;50.878;4.382;2022-08-18T02:40:33;124.65;;;59.90;;
21337;SDS011;10827;50.878;4.382;2022-08-18T02:43:07;123.03;;;56.50;;
21337;SDS011;10827;50.878;4.382;2022-08-18T02:45:35;113.97;;;57.17;;
21337;SDS011;10827;50.878;4.382;2022-08-18T02:48:03;120.28;;;57.88;;
21337;SDS011;10827;50.878;4.382;2022-08-18T02:50:29;119.97;;;57.67;;
21337;SDS011;10827;50.878;4.382;2022-08-18T02:52:55;119.88;;;56.45;;
21337;SDS011;10827;50.878;4.382;2022-08-18T02:55:21;114.32;;;54.83;;
21337;SDS011;10827;50.878;4.382;2022-08-18T02:57:50;114.88;;;56.92;;
21337;SDS011;10827;50.878;4.382;2022-08-18T03:00:17;114.82;;;56.58;;
21337;SDS011;10827;50.878;4.382;2022-08-18T03:02:44;114.97;;;56.35;;
21337;SDS011;10827;50.878;4.382;2022-08-18T03:05:15;113.30;;;56.17;;
21337;SDS011;10827;50.878;4.382;2022-08-18T03:07:41;112.32;;;55.28;;
21337;SDS011;10827;50.878;4.382;2022-08-18T03:10:08;111.70;;;54.63;;
21337;SDS011;10827;50.878;4.382;2022-08-18T03:12:34;105.47;;;51.70;;
21337;SDS011;10827;50.878;4.382;2022-08-18T03:15:00;105.72;;;51.72;;
21337;SDS011;10827;50.878;4.382;2022-08-18T03:17:26;103.15;;;51.55;;
21337;SDS011;10827;50.878;4.382;2022-08-18T03:19:52;102.65;;;50.90;;
21337;SDS011;10827;50.878;4.382;2022-08-18T03:22:18;108.55;;;52.50;;
21337;SDS011;10827;50.878;4.382;2022-08-18T03:24:44;104.72;;;51.97;;
21337;SDS011;10827;50.878;4.382;2022-08-18T03:27:10;101.13;;;51.58;;
21337;SDS011;10827;50.878;4.382;2022-08-18T03:29:36;103.32;;;54.53;;
21337;SDS011;10827;50.878;4.382;2022-08-18T03:32:03;104.45;;;52.15;;
21337;SDS011;10827;50.878;4.382;2022-08-18T03:34:30;106.20;;;52.28;;
21337;SDS011;10827;50.878;4.382;2022-08-18T03:36:57;105.45;;;53.33;;
21337;SDS011;10827;50.878;4.382;2022-08-18T03:39:23;107.05;;;53.88;;
21337;SDS011;10827;50.878;4.382;2022-08-18T03:41:49;100.90;;;50.92;;
21337;SDS011;10827;50.878;4.382;2022-08-18T03:44:20;99.88;;;52.05;;
21337;SDS011;10827;50.878;4.382;2022-08-18T03:46:46;94.75;;;50.85;;
21337;SDS011;10827;50.878;4.382;2022-08-18T03:49:14;100.75;;;53.53;;
21337;SDS011;10827;50.878;4.382;2022-08-18T03:51:42;101.68;;;53.97;;
21337;SDS011;10827;50.878;4.382;2022-08-18T03:54:10;103.75;;;53.67;;
21337;SDS011;10827;50.878;4.382;2022-08-18T03:56:37;97.45;;;52.67;;
21337;SDS011;10827;50.878;4.382;2022-08-18T03:59:15;95.05;;;52.67;;
21337;SDS011;10827;50.878;4.382;2022-08-18T04:01:44;94.32;;;49.97;;
21337;SDS011;10827;50.878;4.382;2022-08-18T04:04:14;92.90;;;49.83;;
21337;SDS011;10827;50.878;4.382;2022-08-18T04:06:44;92.47;;;49.22;;
21337;SDS011;10827;50.878;4.382;2022-08-18T04:09:14;96.45;;;50.50;;
21337;SDS011;10827;50.878;4.382;2022-08-18T04:11:41;92.88;;;48.17;;
21337;SDS011;10827;50.878;4.382;2022-08-18T04:14:09;87.55;;;48.70;;
21337;SDS011;10827;50.878;4.382;2022-08-18T04:16:37;90.65;;;49.28;;
21337;SDS011;10827;50.878;4.382;2022-08-18T04:19:03;96.90;;;49.30;;
21337;SDS011;10827;50.878;4.382;2022-08-18T04:21:30;101.75;;;51.08;;
21337;SDS011;10827;50.878;4.382;2022-08-18T04:24:01;103.70;;;53.00;;
21337;SDS011;10827;50.878;4.382;2022-08-18T04:26:33;100.47;;;51.90;;
21337;SDS011;10827;50.878;4.382;2022-08-18T04:29:01;110.72;;;52.50;;
21337;SDS011;10827;50.878;4.382;2022-08-18T04:31:28;105.55;;;53.45;;
21337;SDS011;10827;50.878;4.382;2022-08-18T04:33:55;114.85;;;54.15;;
21337;SDS011;10827;50.878;4.382;2022-08-18T04:36:22;114.68;;;52.72;;
21337;SDS011;10827;50.878;4.382;2022-08-18T04:38:48;119.28;;;53.40;;
21337;SDS011;10827;50.878;4.382;2022-08-18T04:41:14;108.47;;;51.40;;
21337;SDS011;10827;50.878;4.382;2022-08-18T04:43:40;108.43;;;51.85;;
21337;SDS011;10827;50.878;4.382;2022-08-18T04:46:07;95.43;;;47.20;;
21337;SDS011;10827;50.878;4.382;2022-08-18T04:48:36;99.97;;;49.60;;
21337;SDS011;10827;50.878;4.382;2022-08-18T04:51:14;89.47;;;48.97;;
21337;SDS011;10827;50.878;4.382;2022-08-18T04:53:42;101.55;;;51.85;;
21337;SDS011;10827;50.878;4.382;2022-08-18T04:56:19;97.57;;;52.33;;
21337;SDS011;10827;50.878;4.382;2022-08-18T04:59:24;96.90;;;50.35;;
21337;SDS011;10827;50.878;4.382;2022-08-18T05:01:43;100.20;;;51.30;;
21337;SDS011;10827;50.878;4.382;2022-08-18T05:04:12;96.45;;;53.70;;
21337;SDS011;10827;50.878;4.382;2022-08-18T05:06:40;100.82;;;50.35;;
21337;SDS011;10827;50.878;4.382;2022-08-18T05:09:07;93.43;;;48.72;;
21337;SDS011;10827;50.878;4.382;2022-08-18T05:11:34;92.45;;;47.80;;
21337;SDS011;10827;50.878;4.382;2022-08-18T05:14:03;93.82;;;50.70;;
21337;SDS011;10827;50.878;4.382;2022-08-18T05:16:31;88.72;;;45.45;;
21337;SDS011;10827;50.878;4.382;2022-08-18T05:19:00;92.03;;;48.55;;
21337;SDS011;10827;50.878;4.382;2022-08-18T05:21:30;84.45;;;47.40;;
21337;SDS011;10827;50.878;4.382;2022-08-18T05:23:57;85.70;;;47.13;;
21337;SDS011;10827;50.878;4.382;2022-08-18T05:26:25;88.65;;;47.03;;
21337;SDS011;10827;50.878;4.382;2022-08-18T05:28:52;89.18;;;49.38;;
21337;SDS011;10827;50.878;4.382;2022-08-18T05:31:19;91.13;;;48.65;;
21337;SDS011;10827;50.878;4.382;2022-08-18T05:33:47;85.82;;;46.60;;
21337;SDS011;10827;50.878;4.382;2022-08-18T05:36:20;90.88;;;47.70;;
21337;SDS011;10827;50.878;4.382;2022-08-18T05:39:12;85.45;;;47.63;;
21337;SDS011;10827;50.878;4.382;2022-08-18T05:41:51;82.97;;;45.25;;
21337;SDS011;10827;50.878;4.382;2022-08-18T05:44:31;80.63;;;45.55;;
21337;SDS011;10827;50.878;4.382;2022-08-18T05:47:09;78.65;;;45.20;;
21337;SDS011;10827;50.878;4.382;2022-08-18T05:49:38;76.80;;;44.80;;
21337;SDS011;10827;50.878;4.382;2022-08-18T05:52:07;80.93;;;43.75;;
21337;SDS011;10827;50.878;4.382;2022-08-18T05:54:49;77.43;;;43.47;;
21337;SDS011;10827;50.878;4.382;2022-08-18T05:57:39;76.47;;;43.35;;
21337;SDS011;10827;50.878;4.382;2022-08-18T06:00:28;78.03;;;44.15;;
21337;SDS011;10827;50.878;4.382;2022-08-18T06:02:56;75.80;;;43.05;;
21337;SDS011;10827;50.878;4.382;2022-08-18T06:05:51;83.35;;;45.67;;
21337;SDS011;10827;50.878;4.382;2022-08-18T06:08:22;87.10;;;44.95;;
21337;SDS011;10827;50.878;4.382;2022-08-18T06:10:53;77.90;;;45.50;;
21337;SDS011;10827;50.878;4.382;2022-08-18T06:13:19;89.43;;;48.67;;
21337;SDS011;10827;50.878;4.382;2022-08-18T06:27:20;90.32;;;46.58;;
21337;SDS011;10827;50.878;4.382;2022-08-18T06:40:48;82.82;;;46.28;;
21337;SDS011;10827;50.878;4.382;2022-08-18T06:43:24;81.13;;;44.97;;
21337;SDS011;10827;50.878;4.382;2022-08-18T06:45:52;74.95;;;42.35;;
21337;SDS011;10827;50.878;4.382;2022-08-18T06:50:59;57.47;;;33.67;;
21337;SDS011;10827;50.878;4.382;2022-08-18T06:58:46;60.58;;;34.85;;
21337;SDS011;10827;50.878;4.382;2022-08-18T07:01:12;55.15;;;32.05;;
21337;SDS011;10827;50.878;4.382;2022-08-18T07:06:10;57.05;;;33.05;;
21337;SDS011;10827;50.878;4.382;2022-08-18T07:08:53;55.95;;;33.42;;
21337;SDS011;10827;50.878;4.382;2022-08-18T07:11:25;66.45;;;35.33;;
21337;SDS011;10827;50.878;4.382;2022-08-18T07:13:54;63.97;;;36.40;;
21337;SDS011;10827;50.878;4.382;2022-08-18T07:16:36;58.00;;;33.13;;
21337;SDS011;10827;50.878;4.382;2022-08-18T07:19:09;58.55;;;32.95;;
21337;SDS011;10827;50.878;4.382;2022-08-18T07:21:37;54.75;;;30.80;;
21337;SDS011;10827;50.878;4.382;2022-08-18T07:24:05;48.47;;;29.70;;
21337;SDS011;10827;50.878;4.382;2022-08-18T07:29:31;43.97;;;27.77;;
21337;SDS011;10827;50.878;4.382;2022-08-18T07:32:17;46.00;;;28.05;;
21337;SDS011;10827;50.878;4.382;2022-08-18T07:34:51;46.60;;;26.35;;
21337;SDS011;10827;50.878;4.382;2022-08-18T07:37:23;48.17;;;19.90;;
21337;SDS011;10827;50.878;4.382;2022-08-18T07:39:56;25.00;;;16.27;;
21337;SDS011;10827;50.878;4.382;2022-08-18T07:42:38;23.58;;;15.35;;
21337;SDS011;10827;50.878;4.382;2022-08-18T07:45:15;27.08;;;15.40;;
21337;SDS011;10827;50.878;4.382;2022-08-18T07:50:40;21.55;;;15.50;;
21337;SDS011;10827;50.878;4.382;2022-08-18T07:56:12;24.25;;;17.17;;
21337;SDS011;10827;50.878;4.382;2022-08-18T07:58:50;19.75;;;15.52;;
21337;SDS011;10827;50.878;4.382;2022-08-18T08:06:40;28.27;;;19.13;;
21337;SDS011;10827;50.878;4.382;2022-08-18T08:11:59;35.40;;;21.95;;
21337;SDS011;10827;50.878;4.382;2022-08-18T08:14:50;37.97;;;22.45;;
21337;SDS011;10827;50.878;4.382;2022-08-18T08:17:38;40.38;;;21.55;;
21337;SDS011;10827;50.878;4.382;2022-08-18T08:31:08;30.23;;;20.90;;
21337;SDS011;10827;50.878;4.382;2022-08-18T08:33:39;28.67;;;19.67;;
21337;SDS011;10827;50.878;4.382;2022-08-18T08:36:18;27.90;;;19.92;;
21337;SDS011;10827;50.878;4.382;2022-08-18T08:38:53;24.70;;;17.83;;
21337;SDS011;10827;50.878;4.382;2022-08-18T08:41:27;32.63;;;19.55;;
21337;SDS011;10827;50.878;4.382;2022-08-18T08:46:48;28.40;;;17.33;;
21337;SDS011;10827;50.878;4.382;2022-08-18T08:49:24;30.52;;;17.13;;
21337;SDS011;10827;50.878;4.382;2022-08-18T08:52:09;75.63;;;20.83;;
21337;SDS011;10827;50.878;4.382;2022-08-18T08:57:35;147.63;;;23.63;;
21337;SDS011;10827;50.878;4.382;2022-08-18T09:00:07;22.98;;;16.25;;
21337;SDS011;10827;50.878;4.382;2022-08-18T09:02:51;25.30;;;15.65;;
21337;SDS011;10827;50.878;4.382;2022-08-18T09:05:23;491.50;;;52.40;;
21337;SDS011;10827;50.878;4.382;2022-08-18T09:08:08;209.55;;;31.40;;
21337;SDS011;10827;50.878;4.382;2022-08-18T09:19:29;17.45;;;13.07;;
21337;SDS011;10827;50.878;4.382;2022-08-18T09:22:44;20.48;;;13.90;;
21337;SDS011;10827;50.878;4.382;2022-08-18T09:25:32;18.00;;;13.23;;
21337;SDS011;10827;50.878;4.382;2022-08-18T09:28:10;21.60;;;14.13;;
21337;SDS011;10827;50.878;4.382;2022-08-18T09:30:41;29.65;;;12.90;;
21337;SDS011;10827;50.878;4.382;2022-08-18T09:33:19;29.65;;;13.52;;
21337;SDS011;10827;50.878;4.382;2022-08-18T09:35:56;21.58;;;11.70;;
21337;SDS011;10827;50.878;4.382;2022-08-18T09:38:43;22.48;;;12.50;;
21337;SDS011;10827;50.878;4.382;2022-08-18T09:41:50;16.15;;;12.70;;
21337;SDS011;10827;50.878;4.382;2022-08-18T09:47:10;157.93;;;18.80;;
21337;SDS011;10827;50.878;4.382;2022-08-18T09:57:27;93.90;;;18.13;;
21337;SDS011;10827;50.878;4.382;2022-08-18T10:24:20;16.42;;;13.82;;
21337;SDS011;10827;50.878;4.382;2022-08-18T10:32:34;20.85;;;15.32;;
21337;SDS011;10827;50.878;4.382;2022-08-18T10:34:39;35.75;;;15.13;;
21337;SDS011;10827;50.878;4.382;2022-08-18T10:39:44;35.88;;;15.23;;
21337;SDS011;10827;50.878;4.382;2022-08-18T10:57:07;29.45;;;12.60;;
21337;SDS011;10827;50.878;4.382;2022-08-18T11:05:03;15.55;;;10.55;;
21337;SDS011;10827;50.878;4.382;2022-08-18T11:07:32;18.65;;;12.50;;
21337;SDS011;10827;50.878;4.382;2022-08-18T11:09:59;30.27;;;10.60;;
21337;SDS011;10827;50.878;4.382;2022-08-18T11:15:48;11.95;;;10.75;;
21337;SDS011;10827;50.878;4.382;2022-08-18T11:18:35;13.93;;;11.20;;
21337;SDS011;10827;50.878;4.382;2022-08-18T11:21:22;15.52;;;12.73;;
21337;SDS011;10827;50.878;4.382;2022-08-18T11:24:01;15.77;;;14.15;;
21337;SDS011;10827;50.878;4.382;2022-08-18T11:26:34;19.02;;;14.60;;
21337;SDS011;10827;50.878;4.382;2022-08-18T11:29:20;14.75;;;13.25;;
21337;SDS011;10827;50.878;4.382;2022-08-18T11:31:56;15.52;;;13.55;;
21337;SDS011;10827;50.878;4.382;2022-08-18T11:34:45;15.30;;;13.30;;
21337;SDS011;10827;50.878;4.382;2022-08-18T11:42:57;15.70;;;12.27;;
21337;SDS011;10827;50.878;4.382;2022-08-18T11:45:46;16.73;;;14.82;;
21337;SDS011;10827;50.878;4.382;2022-08-18T11:51:00;17.63;;;13.73;;
21337;SDS011;10827;50.878;4.382;2022-08-18T11:56:10;17.98;;;16.13;;
21337;SDS011;10827;50.878;4.382;2022-08-18T11:58:46;16.85;;;15.20;;
21337;SDS011;10827;50.878;4.382;2022-08-18T12:09:40;19.77;;;17.30;;
21337;SDS011;10827;50.878;4.382;2022-08-18T12:12:15;20.33;;;17.50;;
21337;SDS011;10827;50.878;4.382;2022-08-18T12:17:41;18.65;;;16.63;;
21337;SDS011;10827;50.878;4.382;2022-08-18T12:20:10;18.85;;;16.60;;
21337;SDS011;10827;50.878;4.382;2022-08-18T12:22:37;17.95;;;15.23;;
21337;SDS011;10827;50.878;4.382;2022-08-18T12:25:07;24.60;;;19.73;;
21337;SDS011;10827;50.878;4.382;2022-08-18T12:27:35;25.13;;;22.27;;
21337;SDS011;10827;50.878;4.382;2022-08-18T12:30:02;26.63;;;22.73;;
21337;SDS011;10827;50.878;4.382;2022-08-18T12:32:30;23.63;;;21.13;;
21337;SDS011;10827;50.878;4.382;2022-08-18T12:34:57;33.30;;;23.23;;
21337;SDS011;10827;50.878;4.382;2022-08-18T12:37:25;29.08;;;22.85;;
21337;SDS011;10827;50.878;4.382;2022-08-18T12:39:52;31.55;;;21.15;;
21337;SDS011;10827;50.878;4.382;2022-08-18T12:42:19;26.52;;;21.30;;
21337;SDS011;10827;50.878;4.382;2022-08-18T12:44:46;27.52;;;22.40;;
21337;SDS011;10827;50.878;4.382;2022-08-18T12:47:13;24.08;;;21.48;;
21337;SDS011;10827;50.878;4.382;2022-08-18T12:49:41;28.10;;;21.33;;
21337;SDS011;10827;50.878;4.382;2022-08-18T12:52:07;23.75;;;21.23;;
21337;SDS011;10827;50.878;4.382;2022-08-18T12:54:33;24.35;;;21.70;;
21337;SDS011;10827;50.878;4.382;2022-08-18T12:57:00;24.45;;;21.92;;
21337;SDS011;10827;50.878;4.382;2022-08-18T12:59:27;28.65;;;25.23;;
21337;SDS011;10827;50.878;4.382;2022-08-18T13:01:56;34.22;;;24.25;;
21337;SDS011;10827;50.878;4.382;2022-08-18T13:04:23;42.38;;;24.27;;
21337;SDS011;10827;50.878;4.382;2022-08-18T13:06:50;26.23;;;22.58;;
21337;SDS011;10827;50.878;4.382;2022-08-18T13:09:18;28.13;;;22.45;;
21337;SDS011;10827;50.878;4.382;2022-08-18T13:11:45;34.83;;;22.38;;
21337;SDS011;10827;50.878;4.382;2022-08-18T13:14:11;25.63;;;22.75;;
21337;SDS011;10827;50.878;4.382;2022-08-18T13:16:39;24.50;;;21.90;;
21337;SDS011;10827;50.878;4.382;2022-08-18T13:19:07;26.40;;;21.08;;
21337;SDS011;10827;50.878;4.382;2022-08-18T13:21:33;31.05;;;21.55;;
21337;SDS011;10827;50.878;4.382;2022-08-18T13:24:00;23.95;;;21.35;;
21337;SDS011;10827;50.878;4.382;2022-08-18T13:26:28;25.23;;;20.83;;
21337;SDS011;10827;50.878;4.382;2022-08-18T13:28:56;23.30;;;20.60;;
21337;SDS011;10827;50.878;4.382;2022-08-18T13:31:23;21.40;;;19.20;;
21337;SDS011;10827;50.878;4.382;2022-08-18T13:33:53;20.10;;;18.08;;
21337;SDS011;10827;50.878;4.382;2022-08-18T13:36:20;22.02;;;17.75;;
21337;SDS011;10827;50.878;4.382;2022-08-18T13:38:47;20.25;;;17.20;;
21337;SDS011;10827;50.878;4.382;2022-08-18T13:41:14;17.05;;;15.38;;
21337;SDS011;10827;50.878;4.382;2022-08-18T13:43:40;14.20;;;12.70;;
21337;SDS011;10827;50.878;4.382;2022-08-18T13:46:08;15.80;;;14.27;;
21337;SDS011;10827;50.878;4.382;2022-08-18T13:48:38;17.50;;;14.05;;
21337;SDS011;10827;50.878;4.382;2022-08-18T13:51:05;17.60;;;15.73;;
21337;SDS011;10827;50.878;4.382;2022-08-18T13:53:34;19.00;;;17.02;;
21337;SDS011;10827;50.878;4.382;2022-08-18T13:56:03;27.55;;;19.85;;
21337;SDS011;10827;50.878;4.382;2022-08-18T13:58:29;21.40;;;19.20;;
21337;SDS011;10827;50.878;4.382;2022-08-18T14:00:57;45.40;;;18.55;;
21337;SDS011;10827;50.878;4.382;2022-08-18T14:03:24;18.83;;;16.98;;
21337;SDS011;10827;50.878;4.382;2022-08-18T14:05:51;19.95;;;17.77;;
21337;SDS011;10827;50.878;4.382;2022-08-18T14:08:18;20.25;;;18.25;;
21337;SDS011;10827;50.878;4.382;2022-08-18T14:10:48;18.73;;;16.90;;
21337;SDS011;10827;50.878;4.382;2022-08-18T14:13:17;20.25;;;18.15;;
21337;SDS011;10827;50.878;4.382;2022-08-18T14:15:43;17.23;;;15.52;;
21337;SDS011;10827;50.878;4.382;2022-08-18T14:18:09;15.18;;;13.68;;
21337;SDS011;10827;50.878;4.382;2022-08-18T14:20:35;16.35;;;14.65;;
21337;SDS011;10827;50.878;4.382;2022-08-18T14:23:20;15.70;;;13.00;;
21337;SDS011;10827;50.878;4.382;2022-08-18T14:26:05;24.88;;;13.85;;
21337;SDS011;10827;50.878;4.382;2022-08-18T14:28:49;14.45;;;13.05;;
21337;SDS011;10827;50.878;4.382;2022-08-18T14:31:16;16.80;;;12.80;;
21337;SDS011;10827;50.878;4.382;2022-08-18T14:33:42;22.13;;;12.55;;
21337;SDS011;10827;50.878;4.382;2022-08-18T14:36:10;13.20;;;11.82;;
21337;SDS011;10827;50.878;4.382;2022-08-18T14:38:37;13.40;;;12.00;;
21337;SDS011;10827;50.878;4.382;2022-08-18T14:41:04;15.20;;;12.82;;
21337;SDS011;10827;50.878;4.382;2022-08-18T14:43:31;13.80;;;12.40;;
21337;SDS011;10827;50.878;4.382;2022-08-18T14:46:00;13.15;;;11.77;;
21337;SDS011;10827;50.878;4.382;2022-08-18T14:48:26;15.43;;;12.45;;
21337;SDS011;10827;50.878;4.382;2022-08-18T14:50:53;14.48;;;12.10;;
21337;SDS011;10827;50.878;4.382;2022-08-18T14:53:21;16.98;;;13.55;;
21337;SDS011;10827;50.878;4.382;2022-08-18T14:55:50;14.95;;;13.45;;
21337;SDS011;10827;50.878;4.382;2022-08-18T14:58:22;19.42;;;12.55;;
21337;SDS011;10827;50.878;4.382;2022-08-18T15:01:10;16.25;;;14.68;;
21337;SDS011;10827;50.878;4.382;2022-08-18T15:03:37;23.05;;;13.40;;
21337;SDS011;10827;50.878;4.382;2022-08-18T15:06:05;14.63;;;13.15;;
21337;SDS011;10827;50.878;4.382;2022-08-18T15:08:35;15.23;;;12.90;;
21337;SDS011;10827;50.878;4.382;2022-08-18T15:11:02;15.90;;;14.18;;
21337;SDS011;10827;50.878;4.382;2022-08-18T15:13:30;22.67;;;16.00;;
21337;SDS011;10827;50.878;4.382;2022-08-18T15:15:59;17.55;;;15.55;;
21337;SDS011;10827;50.878;4.382;2022-08-18T15:18:25;20.25;;;17.15;;
21337;SDS011;10827;50.878;4.382;2022-08-18T15:20:51;18.15;;;16.02;;
21337;SDS011;10827;50.878;4.382;2022-08-18T15:23:35;16.75;;;15.02;;
21337;SDS011;10827;50.878;4.382;2022-08-18T15:26:20;19.73;;;17.38;;
21337;SDS011;10827;50.878;4.382;2022-08-18T15:28:49;18.27;;;16.42;;
21337;SDS011;10827;50.878;4.382;2022-08-18T15:31:14;19.27;;;16.90;;
21337;SDS011;10827;50.878;4.382;2022-08-18T15:33:40;15.43;;;13.88;;
21337;SDS011;10827;50.878;4.382;2022-08-18T15:36:06;18.48;;;16.58;;
21337;SDS011;10827;50.878;4.382;2022-08-18T15:38:33;22.20;;;15.30;;
21337;SDS011;10827;50.878;4.382;2022-08-18T15:40:59;16.83;;;14.70;;
21337;SDS011;10827;50.878;4.382;2022-08-18T15:43:27;16.88;;;14.55;;
21337;SDS011;10827;50.878;4.382;2022-08-18T15:45:56;19.67;;;16.95;;
21337;SDS011;10827;50.878;4.382;2022-08-18T15:48:24;19.20;;;17.17;;
21337;SDS011;10827;50.878;4.382;2022-08-18T15:50:52;18.98;;;17.05;;
21337;SDS011;10827;50.878;4.382;2022-08-18T15:53:19;17.88;;;15.90;;
21337;SDS011;10827;50.878;4.382;2022-08-18T15:55:49;22.42;;;16.40;;
21337;SDS011;10827;50.878;4.382;2022-08-18T15:58:16;19.25;;;16.27;;
21337;SDS011;10827;50.878;4.382;2022-08-18T16:00:44;16.48;;;14.80;;
21337;SDS011;10827;50.878;4.382;2022-08-18T16:03:12;16.85;;;14.35;;
21337;SDS011;10827;50.878;4.382;2022-08-18T16:05:45;17.05;;;15.45;;
21337;SDS011;10827;50.878;4.382;2022-08-18T16:08:16;15.88;;;14.25;;
21337;SDS011;10827;50.878;4.382;2022-08-18T16:10:43;14.13;;;12.75;;
21337;SDS011;10827;50.878;4.382;2022-08-18T16:13:09;19.65;;;14.02;;
21337;SDS011;10827;50.878;4.382;2022-08-18T16:15:37;21.73;;;13.40;;
21337;SDS011;10827;50.878;4.382;2022-08-18T16:18:04;14.75;;;13.25;;
21337;SDS011;10827;50.878;4.382;2022-08-18T16:20:31;17.17;;;14.85;;
21337;SDS011;10827;50.878;4.382;2022-08-18T16:22:57;16.77;;;15.18;;
21337;SDS011;10827;50.878;4.382;2022-08-18T16:25:23;17.95;;;14.88;;
21337;SDS011;10827;50.878;4.382;2022-08-18T16:27:50;19.65;;;14.05;;
21337;SDS011;10827;50.878;4.382;2022-08-18T16:30:19;64.63;;;16.85;;
21337;SDS011;10827;50.878;4.382;2022-08-18T16:32:47;124.65;;;20.98;;
21337;SDS011;10827;50.878;4.382;2022-08-18T16:35:13;28.30;;;13.70;;
21337;SDS011;10827;50.878;4.382;2022-08-18T16:37:41;14.35;;;12.95;;
21337;SDS011;10827;50.878;4.382;2022-08-18T16:40:10;15.65;;;13.00;;
21337;SDS011;10827;50.878;4.382;2022-08-18T16:42:37;14.52;;;12.90;;
21337;SDS011;10827;50.878;4.382;2022-08-18T16:45:03;13.50;;;11.90;;
21337;SDS011;10827;50.878;4.382;2022-08-18T16:47:30;13.50;;;12.20;;
21337;SDS011;10827;50.878;4.382;2022-08-18T16:50:10;14.32;;;11.35;;
21337;SDS011;10827;50.878;4.382;2022-08-18T16:52:39;12.93;;;11.30;;
21337;SDS011;10827;50.878;4.382;2022-08-18T16:55:06;12.32;;;10.80;;
21337;SDS011;10827;50.878;4.382;2022-08-18T16:57:33;13.30;;;10.13;;
21337;SDS011;10827;50.878;4.382;2022-08-18T17:00:20;13.40;;;10.48;;
21337;SDS011;10827;50.878;4.382;2022-08-18T17:03:06;10.50;;;9.50;;
21337;SDS011;10827;50.878;4.382;2022-08-18T17:06:25;11.45;;;10.32;;
21337;SDS011;10827;50.878;4.382;2022-08-18T17:08:45;10.90;;;9.70;;
21337;SDS011;10827;50.878;4.382;2022-08-18T17:11:12;11.05;;;8.82;;
21337;SDS011;10827;50.878;4.382;2022-08-18T17:13:41;11.07;;;9.63;;
21337;SDS011;10827;50.878;4.382;2022-08-18T17:16:08;12.13;;;9.60;;
21337;SDS011;10827;50.878;4.382;2022-08-18T17:18:35;9.65;;;8.75;;
21337;SDS011;10827;50.878;4.382;2022-08-18T17:21:02;10.48;;;9.48;;
21337;SDS011;10827;50.878;4.382;2022-08-18T17:23:30;10.23;;;9.32;;
21337;SDS011;10827;50.878;4.382;2022-08-18T17:25:56;10.10;;;8.88;;